Time;durP1;ratioP1;P1;durP2;ratioP2;P2;SDS_P1;SDS_P2;PMS_P1;PMS_P2;Temp;Humidity;BMP_temperature;BMP_pressure;BME280_temperature;BME280_humidity;BME280_pressure;Samples;Min_cycle;Max_cycle;Signal;HPM_P1;HPM_P2
2023/12/31 00:02:16;;;;;;;3.20;2.22;;;6.30;99.90;;;;;;5034121;28;20104;-75
2023/12/31 00:04:41;;;;;;;3.72;2.22;;;6.40;99.90;;;;;;5028148;28;20485;-76
2023/12/31 00:07:07;;;;;;;4.78;2.40;;;6.50;99.90;;;;;;5026647;28;20092;-75
2023/12/31 00:09:32;;;;;;;3.33;2.40;;;6.50;99.90;;;;;;5027372;28;20166;-75
2023/12/31 00:11:58;;;;;;;4.85;2.17;;;6.60;99.90;;;;;;5028800;28;20032;-75
2023/12/31 00:14:23;;;;;;;5.20;2.50;;;6.60;99.90;;;;;;5022746;28;20018;-75
2023/12/31 00:16:49;;;;;;;4.20;2.50;;;6.70;99.90;;;;;;5023245;28;20507;-74
2023/12/31 00:19:15;;;;;;;6.65;3.20;;;6.70;99.90;;;;;;5026708;28;20574;-74
2023/12/31 00:21:43;;;;;;;5.70;3.50;;;6.70;99.90;;;;;;5024165;28;20493;-73
2023/12/31 00:24:09;;;;;;;7.93;4.57;;;6.70;99.90;;;;;;5025224;28;20029;-74
2023/12/31 00:26:35;;;;;;;10.55;6.18;;;6.70;99.90;;;;;;5025878;28;20034;-73
2023/12/31 00:29:01;;;;;;;11.88;6.70;;;6.60;99.90;;;;;;5031254;28;20508;-73
2023/12/31 00:31:26;;;;;;;15.23;7.43;;;6.50;99.90;;;;;;5021693;28;20041;-74
2023/12/31 00:33:56;;;;;;;14.55;7.95;;;6.40;99.90;;;;;;5027228;28;20018;-74
2023/12/31 00:36:23;;;;;;;10.50;7.13;;;6.30;99.90;;;;;;5025811;28;20025;-74
2023/12/31 00:38:48;;;;;;;12.18;7.75;;;6.20;99.90;;;;;;5027571;28;20080;-74
2023/12/31 00:41:14;;;;;;;11.43;6.72;;;6.10;99.90;;;;;;5029092;28;20029;-74
2023/12/31 00:43:40;;;;;;;11.85;6.35;;;6.00;99.90;;;;;;5033740;28;20061;-74
2023/12/31 00:46:05;;;;;;;10.75;6.13;;;6.00;99.90;;;;;;5031571;28;20024;-75
2023/12/31 00:48:31;;;;;;;10.95;6.70;;;5.90;99.90;;;;;;5030181;28;20033;-74
2023/12/31 00:50:56;;;;;;;13.45;6.93;;;5.90;99.90;;;;;;5022708;28;20048;-75
2023/12/31 00:53:22;;;;;;;10.88;6.38;;;5.90;99.90;;;;;;5039923;28;20124;-75
2023/12/31 00:55:48;;;;;;;9.02;5.30;;;5.80;99.90;;;;;;5026754;28;20017;-75
2023/12/31 00:58:13;;;;;;;8.63;5.88;;;5.80;99.90;;;;;;5031531;28;20037;-75
2023/12/31 01:00:39;;;;;;;12.50;6.13;;;5.80;99.90;;;;;;5027203;28;20384;-75
2023/12/31 01:03:04;;;;;;;10.57;5.43;;;5.70;99.90;;;;;;5024229;28;20037;-74
2023/12/31 01:05:30;;;;;;;10.27;5.50;;;5.70;99.90;;;;;;5030956;28;20503;-74
2023/12/31 01:07:56;;;;;;;9.98;5.85;;;5.70;99.90;;;;;;5030117;28;20522;-75
2023/12/31 01:10:21;;;;;;;10.27;5.97;;;5.70;99.90;;;;;;5030859;28;20091;-75
2023/12/31 01:12:47;;;;;;;6.95;3.58;;;5.60;99.90;;;;;;5022068;28;20029;-75
2023/12/31 01:15:13;;;;;;;10.35;3.83;;;5.60;99.90;;;;;;5034507;28;20021;-75
2023/12/31 01:17:38;;;;;;;7.22;3.15;;;5.70;99.90;;;;;;5029696;28;20076;-74
2023/12/31 01:20:04;;;;;;;6.53;3.00;;;5.70;99.90;;;;;;5029418;28;20113;-73
2023/12/31 01:22:30;;;;;;;6.07;2.45;;;5.70;99.90;;;;;;5028387;28;20056;-74
2023/12/31 01:24:56;;;;;;;3.92;2.33;;;5.80;99.90;;;;;;5031420;28;20029;-74
2023/12/31 01:27:21;;;;;;;4.97;2.72;;;5.90;99.90;;;;;;5031085;28;20091;-73
2023/12/31 01:29:47;;;;;;;5.70;2.97;;;5.90;99.90;;;;;;5031103;28;20025;-73
2023/12/31 01:32:12;;;;;;;4.68;2.25;;;6.00;99.90;;;;;;5028750;28;20026;-74
2023/12/31 01:34:39;;;;;;;4.38;2.70;;;6.00;99.90;;;;;;5029734;28;20014;-75
2023/12/31 01:37:05;;;;;;;4.65;3.00;;;6.10;99.90;;;;;;5024565;28;20132;-75
2023/12/31 01:39:31;;;;;;;8.02;3.85;;;6.10;99.90;;;;;;5026743;28;20017;-74
2023/12/31 01:41:57;;;;;;;10.82;6.32;;;6.10;99.90;;;;;;5026275;28;20040;-75
2023/12/31 01:44:22;;;;;;;11.48;7.20;;;5.90;99.90;;;;;;5026019;28;20024;-75
2023/12/31 01:46:48;;;;;;;12.93;7.55;;;5.90;99.90;;;;;;5028976;28;20503;-72
2023/12/31 01:49:13;;;;;;;12.25;7.05;;;5.70;99.90;;;;;;5026224;28;20044;-74
2023/12/31 01:51:39;;;;;;;12.73;7.65;;;5.70;99.90;;;;;;5034514;28;20475;-74
2023/12/31 01:54:05;;;;;;;13.02;8.68;;;5.50;99.90;;;;;;5030972;28;20033;-74
2023/12/31 01:56:33;;;;;;;14.68;7.65;;;5.50;99.90;;;;;;5031142;28;20112;-74
2023/12/31 01:59:01;;;;;;;15.05;8.07;;;5.40;99.90;;;;;;5028015;28;20087;-75
2023/12/31 02:01:27;;;;;;;14.38;7.97;;;5.30;99.90;;;;;;5026355;28;20098;-72
2023/12/31 02:03:52;;;;;;;14.23;7.28;;;5.20;99.90;;;;;;5029444;28;20404;-74
2023/12/31 02:06:18;;;;;;;14.40;6.95;;;5.20;99.90;;;;;;5027949;28;20052;-74
2023/12/31 02:08:44;;;;;;;13.10;7.15;;;5.20;99.90;;;;;;5027146;28;20372;-74
2023/12/31 02:11:11;;;;;;;11.45;6.78;;;5.10;99.90;;;;;;5045287;28;20036;-74
2023/12/31 02:13:37;;;;;;;9.88;5.38;;;5.10;99.90;;;;;;5024189;28;20029;-74
2023/12/31 02:16:02;;;;;;;6.60;4.53;;;5.10;99.90;;;;;;5022211;28;20030;-74
2023/12/31 02:18:29;;;;;;;8.18;3.47;;;5.20;99.90;;;;;;5019687;28;20500;-74
2023/12/31 02:20:54;;;;;;;5.43;3.17;;;5.20;99.90;;;;;;5036749;28;20025;-74
2023/12/31 02:23:20;;;;;;;6.60;3.33;;;5.20;99.90;;;;;;5029657;28;20029;-74
2023/12/31 02:26:06;;;;;;;16.30;7.30;;;5.30;99.90;;;;;;5025009;28;20030;-75
2023/12/31 02:28:31;;;;;;;11.48;6.85;;;5.30;99.90;;;;;;5024099;28;20065;-74
2023/12/31 02:30:57;;;;;;;10.38;6.35;;;5.30;99.90;;;;;;5032097;28;20092;-74
2023/12/31 02:33:23;;;;;;;11.27;6.18;;;5.30;99.90;;;;;;5034591;28;20022;-75
2023/12/31 02:35:48;;;;;;;13.85;6.35;;;5.30;99.90;;;;;;5033280;28;20491;-75
2023/12/31 02:38:14;;;;;;;9.63;5.78;;;5.30;99.90;;;;;;5034646;28;20376;-74
2023/12/31 02:40:39;;;;;;;10.60;6.05;;;5.20;99.90;;;;;;5032921;28;20026;-75
2023/12/31 02:43:05;;;;;;;10.05;6.15;;;5.20;99.90;;;;;;5028862;28;20025;-75
2023/12/31 02:45:30;;;;;;;10.93;6.80;;;5.20;99.90;;;;;;5030498;28;20040;-73
2023/12/31 02:47:56;;;;;;;10.70;6.40;;;5.10;99.90;;;;;;5032705;28;20502;-73
2023/12/31 02:50:21;;;;;;;9.88;5.80;;;5.10;99.90;;;;;;5033689;28;20132;-75
2023/12/31 02:52:48;;;;;;;8.68;4.35;;;5.10;99.90;;;;;;5034067;28;20041;-74
2023/12/31 02:55:14;;;;;;;7.35;3.13;;;5.10;99.90;;;;;;5034026;28;20017;-75
2023/12/31 02:57:40;;;;;;;6.82;4.05;;;5.10;99.90;;;;;;5030774;28;20123;-75
2023/12/31 03:00:06;;;;;;;6.95;4.40;;;5.10;99.90;;;;;;5031853;28;20025;-75
2023/12/31 03:02:31;;;;;;;6.38;4.30;;;5.20;99.90;;;;;;5032538;28;20025;-75
2023/12/31 03:04:57;;;;;;;7.80;3.70;;;5.20;99.90;;;;;;5033366;28;20477;-75
2023/12/31 03:07:23;;;;;;;4.85;2.40;;;5.20;99.90;;;;;;5032677;28;20022;-74
2023/12/31 03:09:48;;;;;;;3.83;2.00;;;5.30;99.90;;;;;;5033551;28;20052;-73
2023/12/31 03:12:14;;;;;;;3.67;1.67;;;5.40;99.90;;;;;;5031195;28;20021;-76
2023/12/31 03:14:39;;;;;;;5.18;1.70;;;5.40;99.90;;;;;;5028307;28;20025;-75
2023/12/31 03:17:05;;;;;;;2.25;1.58;;;5.50;99.90;;;;;;5033307;28;20024;-73
2023/12/31 03:19:36;;;;;;;3.88;1.80;;;5.50;99.90;;;;;;5030959;28;20028;-74
2023/12/31 03:22:02;;;;;;;3.72;1.95;;;5.60;99.90;;;;;;5030052;28;20483;-74
2023/12/31 03:24:28;;;;;;;2.92;1.85;;;5.70;99.90;;;;;;5046978;28;20025;-73
2023/12/31 03:26:54;;;;;;;4.20;1.92;;;5.70;99.90;;;;;;5028699;28;20040;-73
2023/12/31 03:29:19;;;;;;;3.38;2.10;;;5.80;99.90;;;;;;5033140;28;20037;-73
2023/12/31 03:31:45;;;;;;;3.58;2.05;;;5.80;99.90;;;;;;5031368;28;20052;-73
2023/12/31 03:34:10;;;;;;;4.45;2.33;;;5.90;99.90;;;;;;5027887;28;20396;-75
2023/12/31 03:36:36;;;;;;;3.95;1.83;;;5.90;99.90;;;;;;5030769;28;20037;-73
2023/12/31 03:39:02;;;;;;;4.25;2.50;;;6.00;99.90;;;;;;5028143;28;20029;-73
2023/12/31 03:41:28;;;;;;;3.65;1.75;;;6.00;99.90;;;;;;5032974;28;20455;-72
2023/12/31 03:43:54;;;;;;;3.15;1.88;;;6.00;99.90;;;;;;5027258;28;20045;-74
2023/12/31 03:46:20;;;;;;;3.95;2.13;;;6.00;99.90;;;;;;5029528;28;20056;-74
2023/12/31 03:48:46;;;;;;;2.95;1.80;;;6.10;99.90;;;;;;5028038;28;20057;-73
2023/12/31 03:51:12;;;;;;;3.67;2.08;;;6.10;99.90;;;;;;5027495;28;20060;-73
2023/12/31 03:53:37;;;;;;;6.30;2.00;;;6.10;99.90;;;;;;5028015;28;20029;-73
2023/12/31 03:56:03;;;;;;;4.93;2.22;;;6.10;99.90;;;;;;5021486;28;20423;-72
2023/12/31 03:58:29;;;;;;;3.80;2.20;;;6.10;99.90;;;;;;5026362;28;20076;-72
2023/12/31 04:00:55;;;;;;;4.40;1.90;;;6.20;99.90;;;;;;5021898;28;20049;-72
2023/12/31 04:03:20;;;;;;;3.88;1.77;;;6.20;99.90;;;;;;5029224;28;20048;-72
2023/12/31 04:05:46;;;;;;;3.30;2.03;;;6.20;99.90;;;;;;5025691;28;20384;-73
2023/12/31 04:08:11;;;;;;;3.65;1.70;;;6.20;99.90;;;;;;5028347;28;20402;-72
2023/12/31 04:10:37;;;;;;;3.42;1.90;;;6.20;99.90;;;;;;5028530;28;20041;-72
2023/12/31 04:13:03;;;;;;;5.60;1.98;;;6.30;99.90;;;;;;5027026;28;20385;-75
2023/12/31 04:15:28;;;;;;;3.60;2.05;;;6.20;99.90;;;;;;5022386;28;20044;-70
2023/12/31 04:17:54;;;;;;;3.28;1.90;;;6.30;99.90;;;;;;5028535;28;20061;-74
2023/12/31 04:20:19;;;;;;;3.30;1.98;;;6.20;99.90;;;;;;5023157;28;20018;-73
2023/12/31 04:22:45;;;;;;;2.88;1.83;;;6.20;99.90;;;;;;5026442;28;20033;-74
2023/12/31 04:25:11;;;;;;;5.78;2.47;;;6.20;99.90;;;;;;5029977;28;20025;-73
2023/12/31 04:27:38;;;;;;;2.47;1.55;;;6.10;99.90;;;;;;5026432;28;20400;-73
2023/12/31 04:30:05;;;;;;;4.22;2.15;;;6.10;99.90;;;;;;5028830;28;20152;-73
2023/12/31 04:32:31;;;;;;;5.95;2.10;;;6.10;99.90;;;;;;5020026;28;20034;-74
2023/12/31 04:34:56;;;;;;;3.70;2.17;;;6.10;99.90;;;;;;5024222;28;20029;-74
2023/12/31 04:37:22;;;;;;;3.88;2.13;;;6.10;99.90;;;;;;5025923;28;20022;-73
2023/12/31 04:39:48;;;;;;;3.13;2.33;;;6.10;99.90;;;;;;5026179;28;20030;-74
2023/12/31 04:42:14;;;;;;;3.65;2.05;;;6.10;99.90;;;;;;5026494;28;20022;-74
2023/12/31 04:44:41;;;;;;;3.47;2.00;;;6.10;99.90;;;;;;5025224;28;20029;-74
2023/12/31 04:47:07;;;;;;;2.72;1.77;;;6.00;99.90;;;;;;5023961;28;20021;-73
2023/12/31 04:49:32;;;;;;;3.83;2.08;;;6.10;99.90;;;;;;5025003;28;20515;-74
2023/12/31 04:51:58;;;;;;;3.42;2.10;;;6.10;99.90;;;;;;5027145;28;20040;-75
2023/12/31 04:54:23;;;;;;;3.22;1.73;;;6.10;99.90;;;;;;5030458;28;20017;-73
2023/12/31 04:56:49;;;;;;;3.47;1.80;;;6.20;99.90;;;;;;5028395;28;20025;-74
2023/12/31 04:59:15;;;;;;;2.50;1.63;;;6.20;99.90;;;;;;5024891;28;20488;-75
2023/12/31 05:01:40;;;;;;;4.20;1.70;;;6.20;99.90;;;;;;5023177;28;20029;-74
2023/12/31 05:04:06;;;;;;;2.83;1.48;;;6.20;99.90;;;;;;5024731;28;20025;-74
2023/12/31 05:06:31;;;;;;;3.88;1.58;;;6.20;99.90;;;;;;5028529;28;20032;-74
2023/12/31 05:08:58;;;;;;;2.53;1.63;;;6.30;99.90;;;;;;5026928;28;20022;-75
2023/12/31 05:11:26;;;;;;;2.90;1.80;;;6.30;99.90;;;;;;5022365;28;20467;-75
2023/12/31 05:13:51;;;;;;;3.25;1.70;;;6.30;99.90;;;;;;5023062;28;20033;-74
2023/12/31 05:16:17;;;;;;;2.20;1.05;;;6.40;99.90;;;;;;5029882;28;20025;-74
2023/12/31 05:18:46;;;;;;;2.33;1.25;;;6.40;99.90;;;;;;5024137;28;20329;-74
2023/12/31 05:21:12;;;;;;;2.42;1.27;;;6.40;99.90;;;;;;5025384;28;20048;-75
2023/12/31 05:23:38;;;;;;;3.55;1.48;;;6.50;99.90;;;;;;5024632;28;20021;-75
2023/12/31 05:26:03;;;;;;;1.92;1.10;;;6.50;99.90;;;;;;5024528;28;20377;-75
2023/12/31 05:28:29;;;;;;;3.00;1.00;;;6.50;99.90;;;;;;5039940;28;20033;-73
2023/12/31 05:30:55;;;;;;;4.07;1.30;;;6.60;99.90;;;;;;5023532;28;20035;-75
2023/12/31 05:33:20;;;;;;;5.13;2.00;;;6.60;99.90;;;;;;5021851;28;20094;-73
2023/12/31 05:35:46;;;;;;;4.88;2.72;;;6.60;99.90;;;;;;5024166;28;20033;-75
2023/12/31 05:38:11;;;;;;;6.53;3.70;;;6.60;99.90;;;;;;5022712;28;20473;-75
2023/12/31 05:40:37;;;;;;;9.07;5.60;;;6.50;99.90;;;;;;5022747;28;20026;-75
2023/12/31 05:43:03;;;;;;;7.78;5.03;;;6.30;99.90;;;;;;5028395;28;20035;-74
2023/12/31 05:45:28;;;;;;;9.93;5.82;;;6.10;99.90;;;;;;5024583;28;20941;-75
2023/12/31 05:47:54;;;;;;;9.05;5.80;;;5.80;99.90;;;;;;5023396;28;20219;-74
2023/12/31 05:50:20;;;;;;;9.02;5.75;;;5.70;99.90;;;;;;5022820;28;20030;-74
2023/12/31 05:52:46;;;;;;;8.80;5.40;;;5.50;99.90;;;;;;5026177;28;20029;-75
2023/12/31 05:55:12;;;;;;;9.80;6.30;;;5.40;99.90;;;;;;5026578;28;20029;-75
2023/12/31 05:57:39;;;;;;;8.35;5.00;;;5.30;99.90;;;;;;5030259;28;20025;-75
2023/12/31 06:00:06;;;;;;;10.48;5.40;;;5.20;99.90;;;;;;5029471;28;20056;-75
2023/12/31 06:02:32;;;;;;;9.10;5.55;;;5.10;99.90;;;;;;5027657;28;20072;-74
2023/12/31 06:04:57;;;;;;;8.98;6.00;;;5.10;99.90;;;;;;5033415;28;20404;-74
2023/12/31 06:07:23;;;;;;;9.38;6.22;;;5.00;99.90;;;;;;5029568;28;20120;-75
2023/12/31 06:09:50;;;;;;;8.15;5.93;;;4.90;99.90;;;;;;5029683;28;20034;-73
2023/12/31 06:12:16;;;;;;;8.40;5.55;;;4.80;99.90;;;;;;5034671;28;20025;-73
2023/12/31 06:14:41;;;;;;;10.23;5.75;;;4.80;99.90;;;;;;5027401;28;20025;-74
2023/12/31 06:17:07;;;;;;;9.65;5.45;;;4.80;99.90;;;;;;5030781;28;20098;-74
2023/12/31 06:19:33;;;;;;;9.10;5.22;;;4.70;99.90;;;;;;5026920;28;20495;-70
2023/12/31 06:21:59;;;;;;;9.57;5.47;;;4.70;99.90;;;;;;5031598;28;20034;-73
2023/12/31 06:24:25;;;;;;;7.30;5.07;;;4.70;99.90;;;;;;5029259;28;20541;-73
2023/12/31 06:26:51;;;;;;;9.10;4.97;;;4.70;99.90;;;;;;5022526;28;20048;-74
2023/12/31 06:29:17;;;;;;;7.55;5.15;;;4.60;99.90;;;;;;5029421;28;20026;-74
2023/12/31 06:31:42;;;;;;;7.50;5.20;;;4.60;99.90;;;;;;5022705;28;20184;-73
2023/12/31 06:34:08;;;;;;;9.70;6.07;;;4.60;99.90;;;;;;5031191;28;20029;-75
2023/12/31 06:36:33;;;;;;;10.52;6.05;;;4.50;99.90;;;;;;5031274;28;20041;-74
2023/12/31 06:38:59;;;;;;;13.75;7.60;;;4.50;99.90;;;;;;5030155;28;20396;-75
2023/12/31 06:41:25;;;;;;;10.32;6.63;;;4.50;99.90;;;;;;5032687;28;20030;-73
2023/12/31 06:43:50;;;;;;;12.75;7.03;;;4.50;99.90;;;;;;5027026;28;20068;-74
2023/12/31 06:46:16;;;;;;;11.35;7.10;;;4.50;99.90;;;;;;5027987;28;20108;-77
2023/12/31 06:48:41;;;;;;;13.23;6.68;;;4.50;99.90;;;;;;5025684;28;20435;-75
2023/12/31 06:51:07;;;;;;;9.82;6.45;;;4.40;99.90;;;;;;5031265;28;20080;-75
2023/12/31 06:53:35;;;;;;;10.57;6.55;;;4.40;99.90;;;;;;5028203;28;20400;-76
2023/12/31 06:56:08;;;;;;;10.88;7.10;;;4.40;99.90;;;;;;5026962;28;20026;-74
2023/12/31 06:58:35;;;;;;;9.70;6.35;;;4.40;99.90;;;;;;5026788;28;20082;-73
2023/12/31 07:01:01;;;;;;;11.50;6.43;;;4.40;99.90;;;;;;5030623;28;20087;-74
2023/12/31 07:03:27;;;;;;;10.98;6.97;;;4.40;99.90;;;;;;5026619;28;20025;-73
2023/12/31 07:05:52;;;;;;;12.38;6.70;;;4.40;99.90;;;;;;5028010;28;20091;-72
2023/12/31 07:08:18;;;;;;;9.75;5.97;;;4.40;99.90;;;;;;5030620;28;20522;-74
2023/12/31 07:10:44;;;;;;;10.45;6.47;;;4.40;99.90;;;;;;5042650;28;20029;-74
2023/12/31 07:13:09;;;;;;;11.65;6.05;;;4.40;99.90;;;;;;5028428;28;20037;-74
2023/12/31 07:15:35;;;;;;;9.68;5.82;;;4.50;99.90;;;;;;5026111;28;20057;-74
2023/12/31 07:18:02;;;;;;;8.55;5.20;;;4.40;99.90;;;;;;5029910;28;20029;-74
2023/12/31 07:20:28;;;;;;;8.93;5.57;;;4.50;99.90;;;;;;5028929;28;20026;-73
2023/12/31 07:22:54;;;;;;;10.20;6.65;;;4.50;99.90;;;;;;5027054;28;20041;-73
2023/12/31 07:25:21;;;;;;;9.88;5.85;;;4.60;99.90;;;;;;5031482;28;20029;-72
2023/12/31 07:27:46;;;;;;;11.63;6.13;;;4.60;99.90;;;;;;5030954;28;20033;-73
2023/12/31 07:30:12;;;;;;;9.07;4.93;;;4.60;99.90;;;;;;5026432;28;20067;-72
2023/12/31 07:32:38;;;;;;;8.18;4.80;;;4.60;99.90;;;;;;5028861;28;20057;-73
2023/12/31 07:35:05;;;;;;;8.20;4.55;;;4.60;99.90;;;;;;5030579;28;20033;-73
2023/12/31 07:37:31;;;;;;;7.95;4.63;;;4.70;99.90;;;;;;5028452;28;20269;-70
2023/12/31 07:39:57;;;;;;;10.35;4.72;;;4.70;99.90;;;;;;5024986;28;20040;-71
2023/12/31 07:42:23;;;;;;;7.10;4.25;;;4.70;99.90;;;;;;5031600;28;20030;-75
2023/12/31 07:44:49;;;;;;;7.00;4.50;;;4.70;99.90;;;;;;5028939;28;20044;-74
2023/12/31 07:47:15;;;;;;;7.30;4.57;;;4.70;99.90;;;;;;5028267;28;20450;-74
2023/12/31 07:49:41;;;;;;;7.85;4.97;;;4.80;99.90;;;;;;5044967;28;20116;-75
2023/12/31 07:52:06;;;;;;;6.93;4.07;;;4.80;99.90;;;;;;5033588;28;20033;-75
2023/12/31 07:54:32;;;;;;;9.88;4.30;;;4.80;99.90;;;;;;5044845;28;20053;-74
2023/12/31 07:56:59;;;;;;;9.73;4.70;;;4.90;99.90;;;;;;5026266;28;20090;-75
2023/12/31 07:59:25;;;;;;;10.02;5.03;;;4.90;99.90;;;;;;5028818;28;20013;-74
2023/12/31 08:01:51;;;;;;;11.15;5.53;;;5.00;99.90;;;;;;5027478;28;20041;-74
2023/12/31 08:04:16;;;;;;;10.13;4.70;;;5.00;99.90;;;;;;5032029;28;20499;-73
2023/12/31 08:06:42;;;;;;;7.22;4.53;;;5.10;99.90;;;;;;5042115;28;20017;-73
2023/12/31 08:09:10;;;;;;;8.10;5.05;;;5.10;99.90;;;;;;5043000;28;20028;-74
2023/12/31 08:11:36;;;;;;;6.85;4.57;;;5.10;99.90;;;;;;5031737;28;20025;-74
2023/12/31 08:14:02;;;;;;;8.45;4.50;;;5.20;99.90;;;;;;5030395;28;20032;-74
2023/12/31 08:16:28;;;;;;;9.95;4.82;;;5.20;99.90;;;;;;5028629;28;20107;-74
2023/12/31 08:18:54;;;;;;;8.27;5.13;;;5.30;99.90;;;;;;5029548;28;20049;-74
2023/12/31 08:21:20;;;;;;;13.35;7.53;;;5.30;99.90;;;;;;5031347;28;20411;-74
2023/12/31 08:23:46;;;;;;;12.90;7.78;;;5.40;99.90;;;;;;5029307;28;20037;-73
2023/12/31 08:26:13;;;;;;;12.98;6.15;;;5.40;99.90;;;;;;5030476;28;20029;-74
2023/12/31 08:28:39;;;;;;;10.80;5.88;;;5.40;99.90;;;;;;5026140;28;20033;-74
2023/12/31 08:31:04;;;;;;;9.68;6.22;;;5.40;99.90;;;;;;5028463;28;20084;-74
2023/12/31 08:33:30;;;;;;;8.75;5.32;;;5.40;99.90;;;;;;5026299;28;20032;-74
2023/12/31 08:35:55;;;;;;;10.45;5.57;;;5.40;99.90;;;;;;5026369;28;20404;-73
2023/12/31 08:38:21;;;;;;;11.93;6.60;;;5.40;99.90;;;;;;5028762;28;20577;-72
2023/12/31 08:40:47;;;;;;;6.80;4.30;;;5.50;99.90;;;;;;5030145;28;20029;-74
2023/12/31 08:43:12;;;;;;;5.53;3.00;;;5.50;99.90;;;;;;5025731;28;20471;-74
2023/12/31 08:45:39;;;;;;;4.15;1.98;;;5.60;99.90;;;;;;5024522;28;20048;-73
2023/12/31 08:48:07;;;;;;;3.35;1.77;;;5.70;99.90;;;;;;5026330;28;20053;-73
2023/12/31 08:50:33;;;;;;;2.45;1.30;;;6.00;99.90;;;;;;5029441;28;20037;-73
2023/12/31 08:52:58;;;;;;;2.60;1.50;;;6.20;99.90;;;;;;5025063;28;20068;-73
2023/12/31 08:55:24;;;;;;;3.05;1.20;;;6.30;99.90;;;;;;5023383;28;20028;-72
2023/12/31 08:57:50;;;;;;;3.78;1.50;;;6.60;99.90;;;;;;5025350;28;20028;-70
2023/12/31 09:00:17;;;;;;;2.08;1.00;;;6.80;99.90;;;;;;5027794;28;20032;-72
2023/12/31 09:02:43;;;;;;;2.38;1.27;;;6.90;99.90;;;;;;5019557;28;20044;-74
2023/12/31 09:05:09;;;;;;;2.28;1.00;;;7.10;99.90;;;;;;5025670;28;20476;-71
2023/12/31 09:07:35;;;;;;;2.80;1.10;;;7.20;99.90;;;;;;5040041;28;20400;-72
2023/12/31 09:10:04;;;;;;;2.85;1.00;;;7.40;99.90;;;;;;5029980;28;20021;-72
2023/12/31 09:12:30;;;;;;;1.80;0.82;;;7.50;99.90;;;;;;5040333;28;20504;-72
2023/12/31 09:14:56;;;;;;;1.63;0.95;;;7.60;99.90;;;;;;5030736;28;20025;-73
2023/12/31 09:17:22;;;;;;;2.67;0.90;;;7.70;99.90;;;;;;5031632;28;20014;-72
2023/12/31 09:19:48;;;;;;;1.83;1.10;;;7.80;99.90;;;;;;5023011;28;20021;-73
2023/12/31 09:22:13;;;;;;;2.75;1.17;;;7.90;99.90;;;;;;5028020;28;20026;-73
2023/12/31 09:24:39;;;;;;;1.40;0.80;;;7.90;99.90;;;;;;5029484;28;20443;-71
2023/12/31 09:27:07;;;;;;;2.42;1.20;;;8.00;99.90;;;;;;5032783;28;20056;-73
2023/12/31 09:29:34;;;;;;;1.77;1.00;;;8.10;99.90;;;;;;5032146;28;20048;-73
2023/12/31 09:31:59;;;;;;;2.30;1.10;;;8.20;99.90;;;;;;5045288;28;20026;-73
2023/12/31 09:34:25;;;;;;;2.92;0.90;;;8.30;99.90;;;;;;5032437;28;20125;-73
2023/12/31 09:36:51;;;;;;;1.77;1.00;;;8.40;99.90;;;;;;5029136;28;20413;-73
2023/12/31 09:39:17;;;;;;;1.85;1.20;;;8.40;99.90;;;;;;5025850;28;20029;-73
2023/12/31 09:41:44;;;;;;;2.47;1.13;;;8.50;99.90;;;;;;5031880;28;20398;-73
2023/12/31 09:44:12;;;;;;;1.77;1.15;;;8.60;99.90;;;;;;5032723;28;20496;-72
2023/12/31 09:46:39;;;;;;;1.40;0.98;;;8.60;99.90;;;;;;5023063;28;20030;-73
2023/12/31 09:49:06;;;;;;;2.47;1.02;;;8.70;99.90;;;;;;5027668;28;20014;-73
2023/12/31 09:51:32;;;;;;;1.60;1.05;;;8.90;99.90;;;;;;5029377;28;20571;-74
2023/12/31 09:53:59;;;;;;;1.80;1.02;;;8.90;99.90;;;;;;5024824;28;20030;-73
2023/12/31 09:56:28;;;;;;;2.15;1.10;;;9.00;99.90;;;;;;5027597;28;20023;-72
2023/12/31 09:58:55;;;;;;;1.98;1.17;;;9.10;99.90;;;;;;5025809;28;20475;-74
2023/12/31 10:01:22;;;;;;;3.83;1.48;;;9.20;99.90;;;;;;5023122;28;20013;-72
2023/12/31 10:03:48;;;;;;;1.77;1.17;;;9.40;99.90;;;;;;5024913;28;20393;-73
2023/12/31 10:06:14;;;;;;;1.40;0.90;;;9.40;99.90;;;;;;5027402;28;20033;-73
2023/12/31 10:08:41;;;;;;;1.88;1.35;;;9.40;99.90;;;;;;5030434;28;20033;-73
2023/12/31 10:11:07;;;;;;;1.48;1.02;;;9.50;99.90;;;;;;5027739;28;20105;-73
2023/12/31 10:13:33;;;;;;;2.10;1.10;;;9.50;99.90;;;;;;5026597;28;20060;-73
2023/12/31 10:15:59;;;;;;;3.58;1.63;;;9.50;99.90;;;;;;5025704;28;20053;-72
2023/12/31 10:18:27;;;;;;;2.92;1.20;;;9.50;99.90;;;;;;5030264;28;20022;-75
2023/12/31 10:20:53;;;;;;;2.08;1.20;;;9.50;99.90;;;;;;5032079;28;20030;-73
2023/12/31 10:23:18;;;;;;;2.08;1.25;;;9.60;99.90;;;;;;5030444;28;20029;-73
2023/12/31 10:25:44;;;;;;;2.58;0.98;;;9.60;99.90;;;;;;5032113;28;20026;-73
2023/12/31 10:28:10;;;;;;;2.63;1.20;;;9.70;99.90;;;;;;5028491;28;20143;-73
2023/12/31 10:30:39;;;;;;;3.88;1.70;;;9.70;99.90;;;;;;5030462;28;20067;-72
2023/12/31 10:33:15;;;;;;;2.20;1.42;;;9.80;99.90;;;;;;5029782;28;20108;-73
2023/12/31 10:35:41;;;;;;;1.83;1.23;;;9.80;99.90;;;;;;5030918;28;20026;-72
2023/12/31 10:38:07;;;;;;;2.58;1.75;;;9.90;99.90;;;;;;5019246;28;20049;-74
2023/12/31 10:40:33;;;;;;;3.35;1.50;;;9.90;99.90;;;;;;5022285;28;20481;-74
2023/12/31 10:42:59;;;;;;;5.95;2.22;;;9.90;99.90;;;;;;5028305;28;20125;-71
2023/12/31 10:45:30;;;;;;;3.05;1.40;;;9.90;99.90;;;;;;5027531;28;20056;-73
2023/12/31 10:48:01;;;;;;;2.60;1.63;;;9.90;99.90;;;;;;5023847;28;20036;-73
2023/12/31 10:50:27;;;;;;;3.85;2.40;;;9.90;99.90;;;;;;5026301;28;20068;-73
2023/12/31 10:52:57;;;;;;;3.40;2.05;;;9.90;99.90;;;;;;5029127;28;20096;-72
2023/12/31 10:55:23;;;;;;;3.80;2.05;;;9.80;99.90;;;;;;5025239;28;20018;-73
2023/12/31 10:57:51;;;;;;;4.60;2.42;;;9.90;99.90;;;;;;5030072;28;20112;-72
2023/12/31 11:00:18;;;;;;;2.67;2.13;;;9.80;99.90;;;;;;5025329;28;20032;-73
2023/12/31 11:02:44;;;;;;;5.35;2.13;;;9.80;99.90;;;;;;5028530;28;20045;-73
2023/12/31 11:05:12;;;;;;;4.47;2.10;;;9.90;99.90;;;;;;5028165;28;20499;-74
2023/12/31 11:07:37;;;;;;;4.82;2.00;;;9.90;99.90;;;;;;5022519;28;20053;-74
2023/12/31 11:10:04;;;;;;;2.47;1.95;;;9.90;99.90;;;;;;5028820;28;20305;-73
2023/12/31 11:12:29;;;;;;;3.30;2.03;;;9.90;99.90;;;;;;5030995;28;20029;-73
2023/12/31 11:15:12;;;;;;;3.72;2.00;;;10.00;99.90;;;;;;5028831;28;20440;-74
2023/12/31 11:18:12;;;;;;;3.47;2.08;;;10.00;99.90;;;;;;5030311;28;20480;-75
2023/12/31 11:21:14;;;;;;;4.50;2.13;;;10.00;99.90;;;;;;5025518;28;20036;-75
2023/12/31 11:24:07;;;;;;;4.05;2.40;;;10.10;99.90;;;;;;5023351;28;20504;-74
2023/12/31 11:26:34;;;;;;;4.55;2.30;;;10.10;99.90;;;;;;5021558;28;20042;-74
2023/12/31 11:29:01;;;;;;;4.60;2.30;;;10.10;99.90;;;;;;5027045;28;20495;-75
2023/12/31 11:31:26;;;;;;;3.35;2.03;;;10.10;99.90;;;;;;5027837;28;20443;-75
2023/12/31 11:33:52;;;;;;;2.40;1.90;;;10.10;99.90;;;;;;5025844;28;20021;-75
2023/12/31 11:36:17;;;;;;;4.03;1.92;;;10.20;99.90;;;;;;5026151;28;20034;-75
2023/12/31 11:38:59;;;;;;;3.08;1.80;;;10.20;99.90;;;;;;5026849;28;20378;-75
2023/12/31 11:41:33;;;;;;;5.60;2.42;;;10.30;99.90;;;;;;5045511;28;20025;-75
2023/12/31 11:43:59;;;;;;;;;;;10.30;99.90;;;;;;5031974;28;20396;-75
2023/12/31 11:46:37;;;;;;;3.13;1.50;;;10.40;99.90;;;;;;5026036;28;19905;-73
2023/12/31 11:49:03;;;;;;;2.95;1.45;;;10.70;99.90;;;;;;5045012;28;20025;-74
2023/12/31 11:51:49;;;;;;;2.92;1.48;;;10.70;99.90;;;;;;5030472;28;20539;-73
2023/12/31 11:54:19;;;;;;;2.42;1.63;;;10.80;99.90;;;;;;5027686;28;20045;-74
2023/12/31 11:56:45;;;;;;;4.13;1.55;;;10.90;99.90;;;;;;5025763;28;20064;-73
2023/12/31 11:59:12;;;;;;;3.05;1.27;;;10.80;99.90;;;;;;5024649;28;20060;-73
2023/12/31 12:01:39;;;;;;;3.63;1.73;;;10.50;99.90;;;;;;5025075;28;20025;-74
2023/12/31 12:04:05;;;;;;;3.75;1.52;;;10.30;99.90;;;;;;5026317;28;20033;-73
2023/12/31 12:06:30;;;;;;;2.72;1.80;;;10.10;99.90;;;;;;5023549;28;20087;-73
2023/12/31 12:08:56;;;;;;;2.88;1.40;;;9.80;99.90;;;;;;5028382;28;20025;-73
2023/12/31 12:11:23;;;;;;;2.70;1.60;;;9.50;99.90;;;;;;5026766;28;21357;-73
2023/12/31 12:13:49;;;;;;;3.67;1.60;;;9.30;99.90;;;;;;5028007;28;20021;-73
2023/12/31 12:16:15;;;;;;;2.80;1.58;;;9.00;99.90;;;;;;5025651;28;20025;-73
2023/12/31 12:18:40;;;;;;;3.45;1.58;;;8.90;99.90;;;;;;5031343;28;20055;-73
2023/12/31 12:21:08;;;;;;;3.53;1.50;;;8.80;99.90;;;;;;5029789;28;20025;-73
2023/12/31 12:23:33;;;;;;;3.90;1.65;;;8.80;99.90;;;;;;5030648;28;20029;-74
2023/12/31 12:25:59;;;;;;;3.13;1.67;;;8.70;99.90;;;;;;5030651;28;20048;-74
2023/12/31 12:28:26;;;;;;;3.17;1.50;;;8.60;99.90;;;;;;5029892;28;20068;-74
2023/12/31 12:30:51;;;;;;;3.67;1.80;;;8.50;99.90;;;;;;5029466;28;20502;-74
2023/12/31 12:33:17;;;;;;;5.13;2.08;;;8.50;99.90;;;;;;5027865;28;20022;-74
2023/12/31 12:35:43;;;;;;;3.28;1.80;;;8.50;99.90;;;;;;5031496;28;20071;-74
2023/12/31 12:38:10;;;;;;;3.55;1.67;;;8.50;99.90;;;;;;5023970;28;20476;-74
2023/12/31 12:40:36;;;;;;;3.88;1.80;;;8.40;99.90;;;;;;5024377;28;20080;-73
2023/12/31 12:43:03;;;;;;;3.25;1.55;;;8.40;99.90;;;;;;5023885;28;20511;-74
2023/12/31 12:45:31;;;;;;;1.80;1.33;;;8.30;99.90;;;;;;5023175;28;20022;-73
2023/12/31 12:48:01;;;;;;;2.22;1.35;;;8.30;99.90;;;;;;5018541;28;20041;-74
2023/12/31 12:50:29;;;;;;;2.28;1.35;;;8.30;99.90;;;;;;5042169;28;20064;-74
2023/12/31 12:52:56;;;;;;;1.88;1.05;;;8.30;99.90;;;;;;5027222;28;20068;-75